Time;durP1;ratioP1;P1;durP2;ratioP2;P2;SDS_P1;SDS_P2;PMS_P1;PMS_P2;Temp;Humidity;BMP_temperature;BMP_pressure;BME280_temperature;BME280_humidity;BME280_pressure;Samples;Min_cycle;Max_cycle;Signal;HPM_P1;HPM_P2
2021/01/29 00:00:22;;;;;;;;;;;;;;;1.95;100.00;91981.31;1059843;56;20162;-84
2021/01/29 00:01:24;;;;;;;;;;;;;;;1.91;100.00;91983.97;1060046;56;20163;-84
2021/01/29 00:02:25;;;;;;;;;;;;;;;1.90;100.00;91995.66;1059774;56;20655;-84
2021/01/29 00:03:27;;;;;;;;;;;;;;;2.05;100.00;91996.28;1057519;56;20286;-84
2021/01/29 00:04:27;;;;;;;;;;;;;;;2.06;100.00;91997.78;1059430;56;20162;-84
2021/01/29 00:05:29;;;;;;;;;;;;;;;1.99;100.00;91995.97;1055219;56;20576;-84
2021/01/29 00:06:31;;;;;;;;;;;;;;;2.05;100.00;91990.28;1057870;56;20186;-85
2021/01/29 00:07:31;;;;;;;;;;;;;;;2.03;100.00;91995.19;1055381;56;20244;-83
2021/01/29 00:08:33;;;;;;;;;;;;;;;2.03;100.00;91993.31;1059993;56;20158;-84
2021/01/29 00:09:34;;;;;;;;;;;;;;;2.07;100.00;91993.28;1059328;56;20190;-84
2021/01/29 00:10:35;;;;;;;;;;;;;;;2.05;100.00;91990.28;1057743;56;20643;-85
2021/01/29 00:11:36;;;;;;;;;;;;;;;2.07;100.00;91986.12;1057784;56;20159;-84
2021/01/29 00:12:36;;;;;;;;;;;;;;;2.07;100.00;91991.37;1062030;56;20165;-84
2021/01/29 00:13:36;;;;;;;;;;;;;;;2.06;100.00;91987.22;1062104;56;20181;-82
2021/01/29 00:14:37;;;;;;;;;;;;;;;2.04;100.00;91976.34;1057769;56;20147;-84
2021/01/29 00:15:37;;;;;;;;;;;;;;;1.98;100.00;91985.81;1057686;56;20237;-85
2021/01/29 00:16:38;;;;;;;;;;;;;;;2.00;100.00;91978.25;1059745;56;20651;-84
2021/01/29 00:17:39;;;;;;;;;;;;;;;1.98;100.00;91977.91;1059732;56;20264;-83
2021/01/29 00:18:40;;;;;;;;;;;;;;;1.95;100.00;91976.78;1061534;56;20170;-83
2021/01/29 00:19:41;;;;;;;;;;;;;;;1.98;100.00;91970.75;1059773;56;20284;-84
2021/01/29 00:20:42;;;;;;;;;;;;;;;1.85;100.00;91976.88;1059293;56;20297;-84
2021/01/29 00:21:42;;;;;;;;;;;;;;;1.80;100.00;91972.78;1057717;56;20556;-84
2021/01/29 00:22:42;;;;;;;;;;;;;;;1.89;100.00;91974.94;1055505;56;20244;-84
2021/01/29 00:23:43;;;;;;;;;;;;;;;1.82;100.00;91967.87;1057965;56;20154;-84
2021/01/29 00:24:43;;;;;;;;;;;;;;;1.77;100.00;91979.56;1057715;56;20151;-85
2021/01/29 00:25:45;;;;;;;;;;;;;;;1.69;100.00;91969.47;1055763;56;20608;-83
2021/01/29 00:26:46;;;;;;;;;;;;;;;1.69;100.00;91977.38;1059646;56;20151;-83
2021/01/29 00:27:46;;;;;;;;;;;;;;;1.68;100.00;91979.25;1059834;56;20174;-83
2021/01/29 00:28:46;;;;;;;;;;;;;;;1.71;100.00;91983.00;1059804;56;20253;-83
2021/01/29 00:29:47;;;;;;;;;;;;;;;1.76;100.00;91977.31;1059553;56;20158;-83
2021/01/29 00:30:49;;;;;;;;;;;;;;;1.78;100.00;91977.69;1059505;56;20260;-83
2021/01/29 00:31:50;;;;;;;;;;;;;;;1.78;100.00;91969.78;1057647;56;20581;-85
2021/01/29 00:32:51;;;;;;;;;;;;;;;1.78;100.00;91959.25;1055487;56;20154;-84
2021/01/29 00:33:51;;;;;;;;;;;;;;;1.73;100.00;91955.13;1057623;56;20644;-84
2021/01/29 00:34:51;;;;;;;;;;;;;;;1.74;100.00;91953.25;1057633;56;20174;-83
2021/01/29 00:35:52;;;;;;;;;;;;;;;1.83;100.00;91952.81;1055482;56;20163;-83
2021/01/29 00:36:53;;;;;;;;;;;;;;;1.74;100.00;91955.88;1055548;56;20238;-84
2021/01/29 00:37:53;;;;;;;;;;;;;;;1.74;100.00;91955.88;1059806;56;20158;-84
2021/01/29 00:38:53;;;;;;;;;;;;;;;1.80;100.00;91948.31;1059173;56;20219;-84
2021/01/29 00:39:54;;;;;;;;;;;;;;;1.81;100.00;91947.94;1059795;56;20733;-83
2021/01/29 00:40:54;;;;;;;;;;;;;;;1.75;100.00;91949.47;1062199;56;20174;-83
2021/01/29 00:41:55;;;;;;;;;;;;;;;1.76;100.00;91953.63;1059720;56;20154;-85
2021/01/29 00:42:55;;;;;;;;;;;;;;;1.76;100.00;91956.25;1059648;56;20158;-85
2021/01/29 00:43:56;;;;;;;;;;;;;;;1.67;100.00;91945.41;1059492;56;20154;-84
2021/01/29 00:44:56;;;;;;;;;;;;;;;1.68;100.00;91944.28;1055399;56;21127;-87
2021/01/29 00:45:56;;;;;;;;;;;;;;;1.64;100.00;91943.56;1057660;56;20154;-84
2021/01/29 00:46:57;;;;;;;;;;;;;;;1.66;100.00;91943.91;1059723;56;20151;-84
2021/01/29 00:47:57;;;;;;;;;;;;;;;1.76;100.00;91948.34;1059678;56;20174;-85
2021/01/29 00:48:57;;;;;;;;;;;;;;;1.74;100.00;91940.06;1061800;56;20185;-84
2021/01/29 00:49:58;;;;;;;;;;;;;;;1.69;100.00;91935.97;1059691;56;20604;-83
2021/01/29 00:50:58;;;;;;;;;;;;;;;1.63;100.00;91923.63;1057403;56;20150;-83
2021/01/29 00:51:58;;;;;;;;;;;;;;;1.66;100.00;91930.72;1057635;56;20155;-83
2021/01/29 00:52:59;;;;;;;;;;;;;;;1.60;100.00;91924.38;1055420;56;20179;-84
2021/01/29 00:54:00;;;;;;;;;;;;;;;1.66;100.00;91926.22;1057139;56;20155;-83
2021/01/29 00:55:00;;;;;;;;;;;;;;;1.69;100.00;91919.44;1059866;56;20166;-84
2021/01/29 00:56:01;;;;;;;;;;;;;;;1.59;100.00;91922.91;1062192;56;20601;-85
2021/01/29 00:57:01;;;;;;;;;;;;;;;1.61;100.00;91924.00;1059750;56;20186;-83
2021/01/29 00:58:02;;;;;;;;;;;;;;;1.55;100.00;91922.91;1058108;56;20163;-83
2021/01/29 00:59:02;;;;;;;;;;;;;;;1.55;100.00;91930.06;1058040;56;20243;-84
2021/01/29 01:00:05;;;;;;;;;;;;;;;1.63;100.00;91919.09;1059666;56;20181;-83
2021/01/29 01:01:05;;;;;;;;;;;;;;;1.68;100.00;91920.56;1060109;56;20724;-85
2021/01/29 01:02:06;;;;;;;;;;;;;;;1.78;100.00;91914.47;1060366;56;20167;-84
2021/01/29 01:03:06;;;;;;;;;;;;;;;1.77;100.00;91912.97;1059978;56;20182;-83
2021/01/29 01:04:06;;;;;;;;;;;;;;;1.71;100.00;91915.28;1060015;56;20166;-83
2021/01/29 01:05:07;;;;;;;;;;;;;;;1.87;100.00;91919.28;1060230;56;20688;-84
2021/01/29 01:06:08;;;;;;;;;;;;;;;1.85;100.00;91917.03;1062194;56;20190;-85
2021/01/29 01:07:09;;;;;;;;;;;;;;;1.90;100.00;91906.06;1059990;56;20150;-83
2021/01/29 01:08:09;;;;;;;;;;;;;;;2.06;100.00;91907.44;1057905;56;20234;-83
2021/01/29 01:09:09;;;;;;;;;;;;;;;2.39;100.00;91905.97;1058104;56;20166;-84
2021/01/29 01:10:10;;;;;;;;;;;;;;;2.38;100.00;91899.94;1055960;56;20168;-84
2021/01/29 01:11:10;;;;;;;;;;;;;;;2.53;100.00;91903.91;1060352;56;20158;-83
2021/01/29 01:12:11;;;;;;;;;;;;;;;2.91;100.00;91905.75;1060167;56;20749;-84
2021/01/29 01:13:11;;;;;;;;;;;;;;;2.90;100.00;91889.16;1060162;56;20174;-84
2021/01/29 01:14:11;;;;;;;;;;;;;;;2.92;100.00;91886.13;1060056;56;21095;-84
2021/01/29 01:15:14;;;;;;;;;;;;;;;3.05;100.00;91875.78;1060036;56;20611;-82
2021/01/29 01:16:14;;;;;;;;;;;;;;;3.60;100.00;91874.56;1061898;56;22050;-84
2021/01/29 01:17:14;;;;;;;;;;;;;;;3.69;100.00;91882.75;1060115;56;20264;-85
2021/01/29 01:18:15;;;;;;;;;;;;;;;3.79;100.00;91879.19;1060055;56;20154;-84
2021/01/29 01:19:15;;;;;;;;;;;;;;;3.85;100.00;91879.47;1055810;56;20155;-83
2021/01/29 01:20:17;;;;;;;;;;;;;;;3.82;100.00;91878.38;1057883;56;20198;-83
2021/01/29 01:21:17;;;;;;;;;;;;;;;3.99;100.00;91879.22;1059778;56;20147;-84
2021/01/29 01:22:18;;;;;;;;;;;;;;;4.13;100.00;91883.53;1057805;56;20309;-84
2021/01/29 01:23:18;;;;;;;;;;;;;;;4.06;100.00;91883.63;1057417;56;20186;-85
2021/01/29 01:24:18;;;;;;;;;;;;;;;3.91;100.00;91867.28;1057832;56;20166;-85
2021/01/29 01:25:19;;;;;;;;;;;;;;;4.27;100.00;91876.06;1057844;56;20369;-84
2021/01/29 01:26:20;;;;;;;;;;;;;;;4.18;100.00;91869.84;1059787;56;20182;-83
2021/01/29 01:27:20;;;;;;;;;;;;;;;4.21;100.00;91864.47;1059724;56;20150;-85
2021/01/29 01:28:20;;;;;;;;;;;;;;;4.31;100.00;91873.38;1059980;56;20547;-83
2021/01/29 01:29:21;;;;;;;;;;;;;;;4.18;100.00;91867.19;1059952;56;20162;-83
2021/01/29 01:30:25;;;;;;;;;;;;;;;4.18;100.00;91865.28;1057859;56;20186;-83
2021/01/29 01:31:25;;;;;;;;;;;;;;;4.34;100.00;91872.53;1060536;56;20206;-83
2021/01/29 01:32:26;;;;;;;;;;;;;;;4.37;100.00;91863.81;1062172;56;20241;-84
2021/01/29 01:33:26;;;;;;;;;;;;;;;4.33;100.00;91857.81;1057643;56;20253;-84
2021/01/29 01:34:26;;;;;;;;;;;;;;;4.33;100.00;91860.47;1059968;56;20636;-83
2021/01/29 01:35:27;;;;;;;;;;;;;;;4.31;100.00;91857.50;1060237;56;20611;-84
2021/01/29 01:36:27;;;;;;;;;;;;;;;4.29;100.00;91863.19;1059831;56;20189;-83
2021/01/29 01:37:27;;;;;;;;;;;;;;;4.24;100.00;91858.38;1054842;56;20629;-84
2021/01/29 01:38:28;;;;;;;;;;;;;;;4.18;100.00;91860.00;1059924;56;20170;-85
2021/01/29 01:39:28;;;;;;;;;;;;;;;4.13;100.00;91862.38;1060014;56;20190;-85
2021/01/29 01:40:31;;;;;;;;;;;;;;;4.19;100.00;91866.03;1059981;56;20260;-84
2021/01/29 01:41:32;;;;;;;;;;;;;;;4.14;100.00;91858.56;1060074;56;20178;-83
2021/01/29 01:42:32;;;;;;;;;;;;;;;4.11;100.00;91860.13;1062161;56;20166;-83
2021/01/29 01:43:32;;;;;;;;;;;;;;;4.38;100.00;91861.91;1059910;56;20170;-84
2021/01/29 01:44:34;;;;;;;;;;;;;;;4.43;100.00;91861.41;1057829;56;20166;-84
2021/01/29 01:45:50;;;;;;;;;;;;;;;4.52;100.00;91853.69;1061972;56;20724;-82
2021/01/29 01:46:52;;;;;;;;;;;;;;;4.53;100.00;91858.59;1057727;56;20184;-84
2021/01/29 01:47:57;;;;;;;;;;;;;;;4.57;100.00;91850.59;1057554;56;20202;-83
2021/01/29 01:49:15;;;;;;;;;;;;;;;4.52;100.00;91857.09;1055884;56;20586;-83
2021/01/29 01:50:15;;;;;;;;;;;;;;;4.38;100.00;91851.31;1057644;56;20150;-83
2021/01/29 01:51:26;;;;;;;;;;;;;;;4.28;100.00;91845.81;1057932;56;20250;-84
2021/01/29 01:52:31;;;;;;;;;;;;;;;4.51;100.00;91838.97;1057913;56;20718;-84
2021/01/29 01:53:43;;;;;;;;;;;;;;;4.46;100.00;91850.78;1055072;56;20166;-84
2021/01/29 01:54:48;;;;;;;;;;;;;;;4.42;100.00;91846.72;1058006;56;20203;-83
2021/01/29 01:55:52;;;;;;;;;;;;;;;4.36;100.00;91837.75;1060066;56;20146;-84
2021/01/29 01:56:53;;;;;;;;;;;;;;;4.28;100.00;91834.50;1057524;56;20193;-82
2021/01/29 01:57:55;;;;;;;;;;;;;;;4.26;100.00;91836.81;1059648;56;20163;-87
2021/01/29 01:59:00;;;;;;;;;;;;;;;4.31;100.00;91836.34;1061896;56;20561;-85
2021/01/29 02:00:09;;;;;;;;;;;;;;;4.37;100.00;91833.97;1059801;56;20177;-86
2021/01/29 02:01:09;;;;;;;;;;;;;;;4.37;100.00;91842.62;1059563;56;20263;-86
2021/01/29 02:02:11;;;;;;;;;;;;;;;4.31;100.00;91831.06;1059796;56;20673;-87
2021/01/29 02:03:15;;;;;;;;;;;;;;;4.23;100.00;91837.63;1061922;56;20184;-86
2021/01/29 02:04:16;;;;;;;;;;;;;;;4.19;100.00;91831.66;1059195;56;20259;-87
2021/01/29 02:05:28;;;;;;;;;;;;;;;4.23;100.00;91830.44;1061600;56;20180;-85
2021/01/29 02:06:31;;;;;;;;;;;;;;;4.21;100.00;91831.97;1057669;56;20241;-86
2021/01/29 02:07:47;;;;;;;;;;;;;;;4.23;100.00;91827.03;1057696;56;20642;-85
2021/01/29 02:08:48;;;;;;;;;;;;;;;4.28;100.00;91827.31;1060247;56;20181;-86
2021/01/29 02:09:49;;;;;;;;;;;;;;;4.20;100.00;91827.84;1061642;56;20154;-86
2021/01/29 02:10:50;;;;;;;;;;;;;;;4.26;100.00;91828.88;1059766;56;20186;-86
2021/01/29 02:11:51;;;;;;;;;;;;;;;4.35;100.00;91826.44;1057639;56;20147;-86
2021/01/29 02:12:52;;;;;;;;;;;;;;;4.46;100.00;91821.66;1059295;56;20194;-86
2021/01/29 02:13:52;;;;;;;;;;;;;;;4.32;100.00;91823.84;1059634;56;20256;-87
2021/01/29 02:14:53;;;;;;;;;;;;;;;4.24;100.00;91818.69;1059458;56;20198;-85
2021/01/29 02:15:58;;;;;;;;;;;;;;;4.29;100.00;91822.75;1062166;56;20193;-86
2021/01/29 02:17:10;;;;;;;;;;;;;;;4.29;100.00;91825.41;1063916;55;20177;-87
2021/01/29 02:18:16;;;;;;;;;;;;;;;4.18;100.00;91817.69;1060184;56;20178;-87
2021/01/29 02:19:31;;;;;;;;;;;;;;;4.17;100.00;91818.06;1062146;55;20158;-86
2021/01/29 02:20:32;;;;;;;;;;;;;;;4.11;100.00;91807.22;1061466;56;20713;-86
2021/01/29 02:21:55;;;;;;;;;;;;;;;4.03;100.00;91805.88;1062100;56;20173;-85
2021/01/29 02:23:14;;;;;;;;;;;;;;;4.12;100.00;91798.16;1061800;56;20206;-86
2021/01/29 02:24:28;;;;;;;;;;;;;;;4.13;100.00;91796.28;1060247;56;20642;-88
2021/01/29 02:25:45;;;;;;;;;;;;;;;4.12;100.00;91795.50;1059959;56;20185;-87
2021/01/29 02:26:48;;;;;;;;;;;;;;;4.02;100.00;91791.91;1062310;56;20177;-86
2021/01/29 02:27:54;;;;;;;;;;;;;;;3.88;100.00;91784.25;1059587;56;20572;-87
2021/01/29 02:29:09;;;;;;;;;;;;;;;3.90;100.00;91781.19;1059844;56;20222;-85
2021/01/29 02:30:19;;;;;;;;;;;;;;;3.98;100.00;91791.22;1061245;56;20683;-87
2021/01/29 02:31:31;;;;;;;;;;;;;;;3.95;100.00;91776.19;1062189;56;21207;-86
2021/01/29 02:32:50;;;;;;;;;;;;;;;3.88;100.00;91778.22;1059914;56;20167;-86
2021/01/29 02:34:24;;;;;;;;;;;;;;;4.01;100.00;91771.19;1058772;56;20146;-87
2021/01/29 02:35:33;;;;;;;;;;;;;;;3.99;100.00;91774.22;1060590;56;20181;-87
2021/01/29 02:36:43;;;;;;;;;;;;;;;4.10;100.00;91773.28;1062230;56;20158;-87
2021/01/29 02:37:44;;;;;;;;;;;;;;;4.12;100.00;91761.13;1061699;56;20158;-86
2021/01/29 02:38:57;;;;;;;;;;;;;;;4.07;100.00;91763.50;1057510;56;20182;-85
2021/01/29 02:40:16;;;;;;;;;;;;;;;4.21;100.00;91760.56;1058078;56;20155;-85
2021/01/29 02:41:31;;;;;;;;;;;;;;;4.08;100.00;91749.88;1058772;56;20253;-86
2021/01/29 02:42:49;;;;;;;;;;;;;;;4.14;100.00;91739.59;1057984;56;20599;-87
2021/01/29 02:43:55;;;;;;;;;;;;;;;4.15;100.00;91744.44;1058235;56;20277;-83
2021/01/29 02:45:08;;;;;;;;;;;;;;;4.03;100.00;91745.81;1060148;56;20197;-83
2021/01/29 02:46:13;;;;;;;;;;;;;;;3.98;100.00;91745.53;1061518;56;20154;-83
2021/01/29 02:47:22;;;;;;;;;;;;;;;4.06;100.00;91746.91;1057616;56;20282;-83
2021/01/29 02:48:36;;;;;;;;;;;;;;;4.01;100.00;91750.78;1057340;56;20182;-85
2021/01/29 02:49:44;;;;;;;;;;;;;;;4.06;100.00;91748.81;1058540;56;20151;-83
2021/01/29 02:50:47;;;;;;;;;;;;;;;3.97;100.00;91739.50;1057762;56;20174;-84
2021/01/29 02:52:01;;;;;;;;;;;;;;;4.09;100.00;91738.16;1057451;56;20181;-81
2021/01/29 02:53:01;;;;;;;;;;;;;;;4.00;100.00;91733.44;1060155;56;20181;-84
2021/01/29 02:54:18;;;;;;;;;;;;;;;4.06;100.00;91735.59;1061689;56;20225;-85
2021/01/29 02:55:18;;;;;;;;;;;;;;;4.01;100.00;91739.44;1061897;56;20206;-84
2021/01/29 02:56:21;;;;;;;;;;;;;;;4.19;100.00;91739.09;1059941;56;20146;-84
2021/01/29 02:57:29;;;;;;;;;;;;;;;4.09;100.00;91732.13;1059664;56;20182;-83
2021/01/29 02:58:53;;;;;;;;;;;;;;;4.14;100.00;91726.34;1062217;56;20254;-84
2021/01/29 03:00:08;;;;;;;;;;;;;;;4.14;100.00;91736.94;1061645;56;20189;-85
2021/01/29 03:01:41;;;;;;;;;;;;;;;4.17;100.00;91728.16;1060102;56;20576;-83
2021/01/29 03:02:41;;;;;;;;;;;;;;;4.33;100.00;91717.63;1054367;56;20187;-83
2021/01/29 03:03:46;;;;;;;;;;;;;;;4.24;100.00;91728.03;1057667;56;20284;-83
2021/01/29 03:04:53;;;;;;;;;;;;;;;4.31;100.00;91725.25;1061771;56;20166;-83
2021/01/29 03:05:55;;;;;;;;;;;;;;;4.24;100.00;91725.38;1059854;56;20648;-84
2021/01/29 03:07:05;;;;;;;;;;;;;;;4.23;100.00;91723.91;1059137;56;20646;-84
2021/01/29 03:08:10;;;;;;;;;;;;;;;4.24;100.00;91706.88;1058157;56;20186;-85
2021/01/29 03:09:15;;;;;;;;;;;;;;;4.16;100.00;91716.09;1059582;56;20226;-82
2021/01/29 03:10:19;;;;;;;;;;;;;;;3.99;100.00;91702.84;1059821;56;20241;-84
2021/01/29 03:11:23;;;;;;;;;;;;;;;3.85;100.00;91705.75;1057851;56;20178;-83
2021/01/29 03:12:29;;;;;;;;;;;;;;;3.86;100.00;91699.31;1059486;56;20173;-83
2021/01/29 03:13:32;;;;;;;;;;;;;;;3.86;100.00;91704.59;1057434;56;20144;-84
2021/01/29 03:14:46;;;;;;;;;;;;;;;3.84;100.00;91709.56;1059751;56;20264;-84
2021/01/29 03:16:09;;;;;;;;;;;;;;;3.87;100.00;91710.66;1058031;56;20158;-83
2021/01/29 03:17:09;;;;;;;;;;;;;;;3.73;100.00;91709.78;1056990;56;20189;-84
2021/01/29 03:18:17;;;;;;;;;;;;;;;3.77;100.00;91717.63;1057599;56;20167;-84
2021/01/29 03:19:29;;;;;;;;;;;;;;;3.71;100.00;91719.25;1058092;56;20162;-84
2021/01/29 03:20:31;;;;;;;;;;;;;;;3.63;100.00;91715.25;1060024;56;20155;-84
2021/01/29 03:21:35;;;;;;;;;;;;;;;3.72;100.00;91707.53;1057516;56;20196;-83
2021/01/29 03:22:37;;;;;;;;;;;;;;;3.68;100.00;91699.66;1059918;56;20706;-82
2021/01/29 03:23:57;;;;;;;;;;;;;;;3.81;100.00;91691.13;1061657;56;20190;-84
2021/01/29 03:25:18;;;;;;;;;;;;;;;3.83;100.00;91686.19;1059860;56;20155;-84
2021/01/29 03:26:20;;;;;;;;;;;;;;;3.83;100.00;91686.19;1054927;56;20178;-84
2021/01/29 03:27:23;;;;;;;;;;;;;;;3.81;100.00;91694.50;1057617;56;20718;-84
2021/01/29 03:28:26;;;;;;;;;;;;;;;3.81;100.00;91697.16;1061884;56;20186;-83
2021/01/29 03:29:30;;;;;;;;;;;;;;;3.89;100.00;91684.56;1063809;55;20193;-84
2021/01/29 03:30:31;;;;;;;;;;;;;;;3.88;100.00;91689.09;1059516;56;20214;-84
2021/01/29 03:31:33;;;;;;;;;;;;;;;3.89;100.00;91692.47;1059843;56;20229;-85
2021/01/29 03:32:35;;;;;;;;;;;;;;;3.84;100.00;91695.59;1061611;56;20158;-86
2021/01/29 03:33:37;;;;;;;;;;;;;;;3.90;100.00;91691.31;1057383;56;20151;-82
2021/01/29 03:34:56;;;;;;;;;;;;;;;3.81;100.00;91686.59;1055282;56;20210;-84
2021/01/29 03:35:59;;;;;;;;;;;;;;;3.71;100.00;91684.91;1060970;56;20155;-85
2021/01/29 03:37:04;;;;;;;;;;;;;;;3.70;100.00;91684.16;1061235;56;20750;-84
2021/01/29 03:38:23;;;;;;;;;;;;;;;3.78;100.00;91674.19;1059912;56;20182;-84
2021/01/29 03:39:26;;;;;;;;;;;;;;;3.69;100.00;91676.66;1061761;56;20218;-83
2021/01/29 03:40:27;;;;;;;;;;;;;;;3.68;100.00;91686.44;1059603;56;20630;-84
2021/01/29 03:41:35;;;;;;;;;;;;;;;3.68;100.00;91670.59;1059615;56;20154;-83
2021/01/29 03:42:35;;;;;;;;;;;;;;;3.69;100.00;91666.81;1057755;56;20174;-83
2021/01/29 03:43:47;;;;;;;;;;;;;;;3.65;100.00;91665.41;1057659;56;20239;-86
2021/01/29 03:44:59;;;;;;;;;;;;;;;3.65;100.00;91679.34;1059934;56;20240;-83
2021/01/29 03:46:05;;;;;;;;;;;;;;;3.69;100.00;91672.09;1062253;56;20292;-83
2021/01/29 03:47:09;;;;;;;;;;;;;;;3.84;100.00;91655.97;1061704;56;20248;-85
2021/01/29 03:48:15;;;;;;;;;;;;;;;3.99;100.00;91652.59;1059764;56;20181;-83
2021/01/29 03:49:25;;;;;;;;;;;;;;;3.89;100.00;91650.94;1059808;56;20281;-85
2021/01/29 03:50:25;;;;;;;;;;;;;;;3.85;100.00;91647.63;1059510;56;20186;-84
2021/01/29 03:51:32;;;;;;;;;;;;;;;3.80;100.00;91656.03;1057697;56;20171;-84
2021/01/29 03:52:32;;;;;;;;;;;;;;;3.71;100.00;91650.56;1059639;56;20273;-85
2021/01/29 03:53:51;;;;;;;;;;;;;;;3.78;100.00;91642.50;1061714;56;20173;-83
2021/01/29 03:55:12;;;;;;;;;;;;;;;3.71;100.00;91643.38;1060305;56;20194;-84
2021/01/29 03:56:18;;;;;;;;;;;;;;;3.68;100.00;91641.53;1061784;56;20642;-83
2021/01/29 03:57:30;;;;;;;;;;;;;;;3.59;100.00;91635.31;1057478;56;20684;-83
2021/01/29 03:58:39;;;;;;;;;;;;;;;3.61;100.00;91633.75;1060343;56;20147;-83
2021/01/29 03:59:58;;;;;;;;;;;;;;;3.60;100.00;91642.06;1061494;56;20185;-84
2021/01/29 04:01:17;;;;;;;;;;;;;;;3.65;100.00;91633.69;1059506;56;20173;-83
2021/01/29 04:02:41;;;;;;;;;;;;;;;3.58;100.00;91641.75;1058717;56;20210;-84
2021/01/29 04:03:46;;;;;;;;;;;;;;;3.50;100.00;91631.31;1054819;56;20179;-85
2021/01/29 04:04:58;;;;;;;;;;;;;;;3.41;100.00;91631.13;1061322;56;20674;-85
2021/01/29 04:06:09;;;;;;;;;;;;;;;3.36;100.00;91626.31;1057570;56;20178;-84
2021/01/29 04:07:09;;;;;;;;;;;;;;;3.31;100.00;91621.50;1055608;56;20554;-84
2021/01/29 04:08:14;;;;;;;;;;;;;;;3.34;100.00;91615.44;1057371;56;20278;-84
2021/01/29 04:09:33;;;;;;;;;;;;;;;3.28;100.00;91627.59;1059323;56;20252;-82
2021/01/29 04:10:34;;;;;;;;;;;;;;;3.22;100.00;91623.94;1058484;56;21242;-85
2021/01/29 04:11:39;;;;;;;;;;;;;;;3.22;100.00;91613.38;1057422;56;20170;-84
2021/01/29 04:12:40;;;;;;;;;;;;;;;3.23;100.00;91617.50;1059778;56;20210;-84
2021/01/29 04:13:43;;;;;;;;;;;;;;;3.24;100.00;91616.34;1057660;56;20644;-83
2021/01/29 04:14:51;;;;;;;;;;;;;;;3.20;100.00;91613.03;1059873;56;20694;-85
2021/01/29 04:15:52;;;;;;;;;;;;;;;3.16;100.00;91613.12;1059387;56;20241;-84
2021/01/29 04:16:53;;;;;;;;;;;;;;;3.13;100.00;91607.91;1059743;56;20226;-83
2021/01/29 04:17:57;;;;;;;;;;;;;;;3.11;100.00;91603.00;1061681;56;20162;-83
2021/01/29 04:19:00;;;;;;;;;;;;;;;3.15;100.00;91597.66;1059846;56;20182;-85
2021/01/29 04:20:06;;;;;;;;;;;;;;;3.17;100.00;91592.75;1059324;56;20162;-85
2021/01/29 04:21:20;;;;;;;;;;;;;;;3.30;100.00;91590.97;1057991;56;20155;-83
2021/01/29 04:22:24;;;;;;;;;;;;;;;3.17;100.00;91595.38;1059728;56;20182;-84
2021/01/29 04:23:33;;;;;;;;;;;;;;;3.17;100.00;91588.22;1059378;56;20165;-84
2021/01/29 04:24:36;;;;;;;;;;;;;;;3.08;100.00;91595.91;1057345;56;20163;-83
2021/01/29 04:25:42;;;;;;;;;;;;;;;3.06;100.00;91587.66;1057595;56;20159;-82
2021/01/29 04:27:01;;;;;;;;;;;;;;;3.05;100.00;91594.09;1059794;56;20177;-83
2021/01/29 04:28:05;;;;;;;;;;;;;;;3.01;100.00;91586.22;1058176;56;20191;-82
2021/01/29 04:29:09;;;;;;;;;;;;;;;3.09;100.00;91580.81;1057930;56;20186;-83
2021/01/29 04:30:14;;;;;;;;;;;;;;;3.05;100.00;91580.13;1062061;56;20629;-84
2021/01/29 04:31:17;;;;;;;;;;;;;;;2.95;100.00;91572.03;1059798;56;20155;-84
2021/01/29 04:32:19;;;;;;;;;;;;;;;2.92;100.00;91578.09;1057978;56;20714;-84
2021/01/29 04:33:39;;;;;;;;;;;;;;;2.92;100.00;91572.06;1061957;56;20193;-83
2021/01/29 04:34:42;;;;;;;;;;;;;;;2.94;100.00;91575.81;1059908;56;20584;-83
2021/01/29 04:35:42;;;;;;;;;;;;;;;2.84;100.00;91568.81;1057927;56;20325;-83
2021/01/29 04:36:43;;;;;;;;;;;;;;;2.92;100.00;91572.81;1059885;56;20178;-83
2021/01/29 04:37:49;;;;;;;;;;;;;;;2.95;100.00;91572.03;1055497;56;20287;-85
2021/01/29 04:38:52;;;;;;;;;;;;;;;2.96;100.00;91572.75;1058224;56;20159;-83
2021/01/29 04:39:56;;;;;;;;;;;;;;;2.86;100.00;91576.34;1060188;56;20162;-82
2021/01/29 04:41:06;;;;;;;;;;;;;;;2.78;100.00;91568.53;1062138;56;20189;-84
2021/01/29 04:42:28;;;;;;;;;;;;;;;2.89;100.00;91572.88;1064293;55;20154;-83
2021/01/29 04:43:31;;;;;;;;;;;;;;;2.85;100.00;91559.75;1062136;56;20260;-83
2021/01/29 04:44:37;;;;;;;;;;;;;;;2.83;100.00;91556.03;1058090;56;20253;-83
2021/01/29 04:45:46;;;;;;;;;;;;;;;2.88;100.00;91566.88;1059662;56;20753;-84
2021/01/29 04:46:47;;;;;;;;;;;;;;;2.91;100.00;91552.12;1060051;56;20568;-85
2021/01/29 04:47:51;;;;;;;;;;;;;;;2.86;100.00;91563.91;1057925;56;20155;-84
2021/01/29 04:49:01;;;;;;;;;;;;;;;2.85;100.00;91554.47;1060152;56;20178;-84
2021/01/29 04:50:09;;;;;;;;;;;;;;;2.84;100.00;91553.00;1061791;56;20237;-84
2021/01/29 04:51:30;;;;;;;;;;;;;;;2.82;100.00;91549.28;1062326;56;20259;-86
2021/01/29 04:52:49;;;;;;;;;;;;;;;2.79;100.00;91550.81;1058991;56;20172;-84
2021/01/29 04:54:01;;;;;;;;;;;;;;;2.85;100.00;91543.19;1060355;56;20189;-85
2021/01/29 04:55:17;;;;;;;;;;;;;;;2.82;100.00;91542.09;1058094;56;20230;-84
2021/01/29 04:56:25;;;;;;;;;;;;;;;2.86;100.00;91532.22;1056674;56;20159;-84
2021/01/29 04:57:37;;;;;;;;;;;;;;;2.89;100.00;91539.31;1056254;56;20155;-83
2021/01/29 04:59:04;;;;;;;;;;;;;;;2.84;100.00;91537.16;1058508;56;20580;-85
2021/01/29 05:00:22;;;;;;;;;;;;;;;2.86;100.00;91544.69;1063254;56;20192;-84
2021/01/29 05:01:23;;;;;;;;;;;;;;;2.79;100.00;91535.00;1062068;56;20162;-85
2021/01/29 05:02:42;;;;;;;;;;;;;;;2.85;100.00;91529.97;1060098;56;20962;-84
2021/01/29 05:04:08;;;;;;;;;;;;;;;3.62;100.00;91526.94;1062942;56;20182;-83
2021/01/29 05:05:26;;;;;;;;;;;;;;;3.73;100.00;91524.81;1054693;56;20167;-84
2021/01/29 05:06:32;;;;;;;;;;;;;;;3.86;100.00;91530.16;1060061;56;20572;-83
2021/01/29 05:07:38;;;;;;;;;;;;;;;3.92;100.00;91517.22;1060383;56;21130;-84
2021/01/29 05:08:41;;;;;;;;;;;;;;;3.87;100.00;91502.59;1061764;56;20162;-83
2021/01/29 05:09:47;;;;;;;;;;;;;;;4.01;100.00;91512.09;1062093;56;20206;-83
2021/01/29 05:10:55;;;;;;;;;;;;;;;4.15;100.00;91509.13;1059808;56;20663;-84
2021/01/29 05:12:03;;;;;;;;;;;;;;;4.27;100.00;91497.88;1056390;56;20160;-84
2021/01/29 05:13:12;;;;;;;;;;;;;;;4.56;100.00;91499.78;1058086;56;20347;-84
2021/01/29 05:14:35;;;;;;;;;;;;;;;4.84;100.00;91494.94;1057776;56;20190;-85
2021/01/29 05:15:47;;;;;;;;;;;;;;;4.87;100.00;91494.81;1058344;56;20674;-85
2021/01/29 05:17:06;;;;;;;;;;;;;;;5.23;100.00;91489.31;1060237;56;20158;-84
2021/01/29 05:18:12;;;;;;;;;;;;;;;5.18;100.00;91479.25;1060591;56;20163;-85
2021/01/29 05:19:12;;;;;;;;;;;;;;;5.03;100.00;91483.44;1060108;56;20295;-84
2021/01/29 05:20:19;;;;;;;;;;;;;;;5.02;100.00;91488.00;1060027;56;20175;-82
2021/01/29 05:21:24;;;;;;;;;;;;;;;5.15;100.00;91482.75;1061813;56;20158;-85
2021/01/29 05:22:43;;;;;;;;;;;;;;;5.25;100.00;91483.59;1057953;56;20253;-83
2021/01/29 05:23:46;;;;;;;;;;;;;;;4.95;100.00;91488.19;1058220;56;20190;-84
2021/01/29 05:24:53;;;;;;;;;;;;;;;5.26;100.00;91487.72;1057846;56;20170;-85
2021/01/29 05:26:29;;;;;;;;;;;;;;;5.27;100.00;91481.28;1058009;56;21174;-84
2021/01/29 05:27:48;;;;;;;;;;;;;;;5.41;100.00;91464.97;1058306;56;20155;-84
2021/01/29 05:28:56;;;;;;;;;;;;;;;5.33;100.00;91479.59;1056980;56;20203;-84
2021/01/29 05:30:06;;;;;;;;;;;;;;;5.25;100.00;91473.75;1058061;56;20195;-83
2021/01/29 05:31:07;;;;;;;;;;;;;;;5.07;100.00;91465.56;1060229;56;20190;-83
2021/01/29 05:32:13;;;;;;;;;;;;;;;5.14;100.00;91468.00;1057666;56;20159;-84
2021/01/29 05:33:32;;;;;;;;;;;;;;;5.25;100.00;91459.75;1057321;56;20194;-83
2021/01/29 05:34:48;;;;;;;;;;;;;;;5.37;100.00;91468.88;1058778;56;20182;-82
2021/01/29 05:35:53;;;;;;;;;;;;;;;5.34;100.00;91478.41;1062379;56;20651;-84
2021/01/29 05:37:23;;;;;;;;;;;;;;;5.24;100.00;91466.22;1061407;56;20173;-84
2021/01/29 05:38:43;;;;;;;;;;;;;;;5.22;100.00;91479.13;1058520;56;20646;-85
2021/01/29 05:39:50;;;;;;;;;;;;;;;5.13;100.00;91479.00;1053829;56;20159;-84
2021/01/29 05:41:02;;;;;;;;;;;;;;;5.33;100.00;91471.63;1058091;56;20192;-84
2021/01/29 05:42:12;;;;;;;;;;;;;;;5.07;100.00;91462.91;1057890;56;20234;-85
2021/01/29 05:43:12;;;;;;;;;;;;;;;5.09;100.00;91473.06;1056116;56;20206;-84
2021/01/29 05:44:31;;;;;;;;;;;;;;;5.03;100.00;91472.84;1057961;56;21128;-84